Time;durP1;ratioP1;P1;durP2;ratioP2;P2;SDS_P1;SDS_P2;PMS_P1;PMS_P2;Temp;Humidity;BMP_temperature;BMP_pressure;BME280_temperature;BME280_humidity;BME280_pressure;Samples;Min_cycle;Max_cycle;Signal;HPM_P1;HPM_P2
2024/04/03 00:01:51;;;;;;;4.78;1.98;;;;;;;9.94;100.00;99970.84;4942817;28;20098;-84
2024/04/03 00:04:17;;;;;;;7.95;2.22;;;;;;;9.92;100.00;99974.38;4942030;28;20384;-84
2024/04/03 00:06:43;;;;;;;11.02;3.20;;;;;;;9.96;100.00;99970.84;4936635;28;20050;-83
2024/04/03 00:09:12;;;;;;;6.65;1.98;;;;;;;9.96;100.00;99969.97;4933693;28;20039;-83
2024/04/03 00:11:38;;;;;;;7.22;2.88;;;;;;;9.91;100.00;99957.84;4938908;29;20081;-83
2024/04/03 00:14:04;;;;;;;6.00;2.20;;;;;;;9.94;100.00;99960.41;4927362;28;20055;-83
2024/04/03 00:16:31;;;;;;;6.68;2.42;;;;;;;9.92;100.00;99966.53;4957147;28;20052;-83
2024/04/03 00:19:00;;;;;;;7.38;2.63;;;;;;;9.91;100.00;99963.09;4937207;28;20454;-84
2024/04/03 00:21:28;;;;;;;7.40;2.60;;;;;;;9.91;100.00;99965.69;4957133;28;20041;-82
2024/04/03 00:23:55;;;;;;;8.35;2.78;;;;;;;9.89;100.00;99956.16;4935025;28;20051;-84
2024/04/03 00:26:22;;;;;;;8.20;4.10;;;;;;;9.89;100.00;99957.00;4937747;28;20047;-84
2024/04/03 00:28:49;;;;;;;9.73;3.08;;;;;;;9.82;100.00;99960.63;4948277;28;20039;-83
2024/04/03 00:31:16;;;;;;;5.78;2.80;;;;;;;9.84;100.00;99958.88;4960778;28;20039;-84
2024/04/03 00:33:42;;;;;;;7.60;2.90;;;;;;;9.77;100.00;99952.84;4932405;29;20049;-83
2024/04/03 00:36:08;;;;;;;7.07;2.85;;;;;;;9.73;100.00;99960.78;4944331;28;20042;-85
2024/04/03 00:38:37;;;;;;;11.27;3.00;;;;;;;9.64;100.00;99956.56;4939532;28;20105;-85
2024/04/03 00:41:04;;;;;;;8.07;3.65;;;;;;;9.60;100.00;99963.59;4945196;28;20057;-84
2024/04/03 00:43:30;;;;;;;5.55;3.35;;;;;;;9.55;100.00;99967.16;4947839;28;20666;-83
2024/04/03 00:46:03;;;;;;;8.23;3.35;;;;;;;9.47;100.00;99953.38;4946183;28;20059;-85
2024/04/03 00:48:30;;;;;;;7.97;2.67;;;;;;;9.42;100.00;99951.66;4938756;28;20590;-83
2024/04/03 00:50:58;;;;;;;12.27;5.03;;;;;;;9.36;100.00;99951.78;4955991;28;20830;-84
2024/04/03 00:53:25;;;;;;;9.85;2.97;;;;;;;9.33;100.00;99964.03;4940543;29;20051;-84
2024/04/03 00:55:52;;;;;;;5.93;3.50;;;;;;;9.31;100.00;99966.66;4935676;28;20055;-83
2024/04/03 00:58:17;;;;;;;5.85;3.40;;;;;;;9.25;100.00;99964.13;4955697;28;20097;-84
2024/04/03 01:00:44;;;;;;;12.68;5.47;;;;;;;9.21;100.00;99965.06;4946171;29;20087;-82
2024/04/03 01:03:10;;;;;;;8.30;3.88;;;;;;;9.15;100.00;99959.94;4932977;28;20779;-84
2024/04/03 01:05:36;;;;;;;13.90;4.57;;;;;;;9.16;100.00;99965.13;4942748;28;20050;-84
2024/04/03 01:08:03;;;;;;;8.93;3.80;;;;;;;9.10;100.00;99967.84;4933916;28;20070;-83
2024/04/03 01:10:29;;;;;;;7.32;3.60;;;;;;;9.07;100.00;99966.13;4946507;29;20825;-83
2024/04/03 01:12:59;;;;;;;9.13;3.75;;;;;;;9.05;100.00;99961.81;4928133;28;20450;-84
2024/04/03 01:15:25;;;;;;;10.52;4.05;;;;;;;9.05;100.00;99964.44;4942269;28;20065;-84
2024/04/03 01:17:51;;;;;;;6.57;3.60;;;;;;;9.03;100.00;99959.19;4923605;28;20073;-84
2024/04/03 01:20:18;;;;;;;11.05;5.10;;;;;;;9.01;100.00;99963.59;4963133;28;20398;-84
2024/04/03 01:22:43;;;;;;;14.43;4.28;;;;;;;8.98;100.00;99962.78;4936996;29;20733;-83
2024/04/03 01:25:10;;;;;;;8.05;3.65;;;;;;;8.96;100.00;99962.81;4929986;28;20066;-84
2024/04/03 01:27:36;;;;;;;10.60;4.35;;;;;;;8.97;100.00;99963.66;4936937;28;20051;-84
2024/04/03 01:30:03;;;;;;;13.25;4.55;;;;;;;8.98;100.00;99961.00;4938039;28;20058;-84
2024/04/03 01:32:29;;;;;;;8.02;4.05;;;;;;;9.03;100.00;99951.38;4934645;28;20031;-84
2024/04/03 01:34:55;;;;;;;11.65;4.28;;;;;;;9.07;100.00;99949.59;4935655;28;20043;-87
2024/04/03 01:37:22;;;;;;;12.82;6.20;;;;;;;9.07;100.00;99954.81;4936798;28;20051;-83
2024/04/03 01:39:49;;;;;;;9.18;4.57;;;;;;;9.02;100.00;99949.66;4939828;28;20052;-83
2024/04/03 01:42:16;;;;;;;9.90;4.18;;;;;;;8.92;100.00;99951.53;4942241;28;20042;-85
2024/04/03 01:44:43;;;;;;;8.55;4.95;;;;;;;8.89;100.00;99963.75;4927010;28;20046;-83
2024/04/03 01:47:08;;;;;;;11.40;4.80;;;;;;;8.87;100.00;99955.94;4945484;28;20078;-85
2024/04/03 01:49:35;;;;;;;10.70;4.82;;;;;;;8.89;100.00;99959.41;4962736;28;20481;-84
2024/04/03 01:52:01;;;;;;;10.65;5.15;;;;;;;8.92;100.00;99958.50;4950704;28;20047;-84
2024/04/03 01:54:28;;;;;;;9.43;5.00;;;;;;;8.97;100.00;99956.69;4958004;28;20043;-84
2024/04/03 01:56:57;;;;;;;8.05;4.65;;;;;;;9.03;100.00;99955.75;4944164;28;20051;-82
2024/04/03 01:59:23;;;;;;;9.55;5.78;;;;;;;9.05;100.00;99946.16;4955738;28;20055;-83
2024/04/03 02:01:49;;;;;;;11.65;5.07;;;;;;;9.08;100.00;99948.72;4957883;28;20043;-83
2024/04/03 02:04:26;;;;;;;12.10;4.97;;;;;;;9.05;100.00;99939.19;4965232;28;20053;-85
2024/04/03 02:06:52;;;;;;;10.00;4.97;;;;;;;9.03;100.00;99947.91;4948954;28;20716;-83
2024/04/03 02:09:19;;;;;;;10.63;4.75;;;;;;;9.02;100.00;99939.22;4936547;28;20059;-84
2024/04/03 02:11:47;;;;;;;11.82;5.10;;;;;;;9.01;100.00;99940.09;4944949;28;20047;-84
2024/04/03 02:14:14;;;;;;;12.20;4.75;;;;;;;9.05;100.00;99939.19;4921270;28;20070;-82
2024/04/03 02:16:46;;;;;;;13.60;5.80;;;;;;;9.07;100.00;99942.63;4936090;28;20038;-84
2024/04/03 02:19:13;;;;;;;11.65;5.60;;;;;;;9.13;100.00;99944.28;4933215;28;20462;-82
2024/04/03 02:21:39;;;;;;;10.73;6.60;;;;;;;9.15;100.00;99939.03;4964863;28;20538;-83
2024/04/03 02:24:06;;;;;;;7.28;5.75;;;;;;;9.18;100.00;99942.47;4943010;28;20042;-84
2024/04/03 02:26:32;;;;;;;16.25;5.80;;;;;;;9.17;100.00;99937.28;4967626;28;20126;-83
2024/04/03 02:28:58;;;;;;;9.98;5.47;;;;;;;9.18;100.00;99937.25;4943250;28;20134;-84
2024/04/03 02:31:24;;;;;;;8.07;4.32;;;;;;;9.16;100.00;99931.19;4946406;28;20122;-84
2024/04/03 02:33:51;;;;;;;12.77;5.85;;;;;;;9.16;100.00;99933.78;4929034;28;20471;-85
2024/04/03 02:36:17;;;;;;;13.82;5.38;;;;;;;9.16;100.00;99932.94;4942487;28;20083;-84
2024/04/03 02:38:44;;;;;;;11.52;6.22;;;;;;;9.17;100.00;99930.28;4949791;29;20050;-83
2024/04/03 02:41:09;;;;;;;14.15;4.57;;;;;;;9.22;100.00;99933.69;4962110;28;20043;-83
2024/04/03 02:43:36;;;;;;;15.38;5.57;;;;;;;9.27;100.00;99936.25;4947562;29;20130;-83
2024/04/03 02:46:02;;;;;;;11.05;4.75;;;;;;;9.32;100.00;99936.16;4935209;28;20435;-84
2024/04/03 02:48:28;;;;;;;16.55;5.75;;;;;;;9.35;100.00;99936.16;4935691;28;20047;-84
2024/04/03 02:51:05;;;;;;;11.15;5.03;;;;;;;9.37;100.00;99937.84;4946849;28;20035;-83
2024/04/03 02:53:33;;;;;;;7.85;4.57;;;;;;;9.38;100.00;99921.25;4937886;28;20446;-83
2024/04/03 02:56:09;;;;;;;13.40;4.75;;;;;;;9.39;100.00;99916.91;4955648;28;20075;-83
2024/04/03 02:58:36;;;;;;;12.05;6.38;;;;;;;9.44;100.00;99913.34;4954534;28;20051;-85
2024/04/03 03:01:10;;;;;;;9.52;4.78;;;;;;;9.42;100.00;99922.94;4940002;28;20054;-84
2024/04/03 03:03:40;;;;;;;15.68;6.88;;;;;;;9.40;100.00;99921.25;4953320;28;20742;-84
2024/04/03 03:06:09;;;;;;;11.85;4.57;;;;;;;9.39;100.00;99912.53;4938273;28;20098;-85
2024/04/03 03:08:36;;;;;;;14.50;5.18;;;;;;;9.39;100.00;99906.47;4956563;28;20071;-82
2024/04/03 03:11:03;;;;;;;12.98;4.68;;;;;;;9.40;100.00;99914.28;4961129;28;20039;-84
2024/04/03 03:13:31;;;;;;;16.52;5.03;;;;;;;9.39;100.00;99911.69;4933842;28;20078;-82
2024/04/03 03:16:01;;;;;;;10.27;4.75;;;;;;;9.38;100.00;99900.38;4940501;28;20452;-83
2024/04/03 03:18:30;;;;;;;10.57;5.55;;;;;;;9.41;100.00;99909.91;4941351;28;20081;-83
2024/04/03 03:20:58;;;;;;;13.45;4.40;;;;;;;9.40;100.00;99900.38;4929295;28;20057;-83
2024/04/03 03:23:28;;;;;;;11.75;4.80;;;;;;;9.40;100.00;99900.38;4961188;28;20051;-85
2024/04/03 03:25:54;;;;;;;11.73;4.65;;;;;;;9.38;100.00;99902.13;4947790;28;20065;-82
2024/04/03 03:28:21;;;;;;;12.55;4.28;;;;;;;9.37;100.00;99911.72;4932041;28;20047;-83
2024/04/03 03:30:51;;;;;;;11.27;4.30;;;;;;;9.39;100.00;99904.72;4939185;28;20138;-84
2024/04/03 03:33:19;;;;;;;18.00;4.50;;;;;;;9.39;100.00;99915.16;4935666;28;21522;-83
2024/04/03 03:35:53;;;;;;;8.98;3.08;;;;;;;9.44;100.00;99909.88;4950098;28;20442;-86
2024/04/03 03:38:19;;;;;;;11.02;4.07;;;;;;;9.45;100.00;99906.34;4947201;28;20118;-84
2024/04/03 03:40:47;;;;;;;10.90;3.97;;;;;;;9.48;100.00;99910.66;4969943;28;20031;-83
2024/04/03 03:43:17;;;;;;;17.98;5.07;;;;;;;9.49;100.00;99910.66;4943099;28;20051;-83
2024/04/03 03:45:48;;;;;;;9.75;4.07;;;;;;;9.51;100.00;99910.63;4946326;28;20050;-84
2024/04/03 03:48:20;;;;;;;14.93;3.65;;;;;;;9.51;100.00;99908.88;4944559;28;20038;-83
2024/04/03 03:53:32;;;;;;;15.70;3.30;;;;;;;9.51;100.00;99898.41;4940013;29;20042;-84
2024/04/03 03:56:09;;;;;;;8.15;2.88;;;;;;;9.54;100.00;99889.66;4957795;28;20087;-85
2024/04/03 03:58:36;;;;;;;7.10;3.78;;;;;;;9.57;100.00;99895.72;4926515;28;20077;-83
2024/04/03 04:01:06;;;;;;;9.98;3.78;;;;;;;9.59;100.00;99899.16;4929908;28;20121;-82
2024/04/03 04:03:34;;;;;;;12.13;3.47;;;;;;;9.63;100.00;99899.09;4946394;28;20043;-82
2024/04/03 04:06:01;;;;;;;12.85;3.63;;;;;;;9.65;100.00;99898.19;4945563;28;20051;-83
2024/04/03 04:08:31;;;;;;;6.55;2.63;;;;;;;9.68;100.00;99887.66;4952963;28;20082;-81
2024/04/03 04:11:00;;;;;;;11.35;3.13;;;;;;;9.71;100.00;99887.63;4920959;28;20066;-82
2024/04/03 04:13:28;;;;;;;15.73;3.35;;;;;;;9.70;100.00;99885.03;4934111;28;20067;-85
2024/04/03 04:15:57;;;;;;;8.55;1.98;;;;;;;9.72;100.00;99880.66;4932324;28;20059;-86
2024/04/03 04:18:27;;;;;;;11.98;3.00;;;;;;;9.74;100.00;99884.13;4946115;28;20047;-84
2024/04/03 04:20:55;;;;;;;9.05;2.90;;;;;;;9.73;100.00;99887.59;4955864;28;20039;-84
2024/04/03 04:23:26;;;;;;;8.05;2.97;;;;;;;9.72;100.00;99896.34;4950377;28;20419;-84
2024/04/03 04:25:56;;;;;;;26.83;5.88;;;;;;;9.69;100.00;99899.84;4934595;28;20051;-84
2024/04/03 04:28:37;;;;;;;7.57;2.70;;;;;;;9.68;100.00;99903.34;4951786;28;20035;-83
2024/04/03 04:31:05;;;;;;;3.72;2.22;;;;;;;9.64;100.00;99899.06;4949297;28;20047;-83
2024/04/03 04:33:38;;;;;;;6.95;2.92;;;;;;;9.67;100.00;99903.38;4943878;28;20106;-83
2024/04/03 04:36:04;;;;;;;5.30;2.92;;;;;;;9.66;100.00;99899.03;4920045;28;20047;-83
2024/04/03 04:38:31;;;;;;;12.43;3.10;;;;;;;9.63;100.00;99896.50;4936097;28;20101;-83
2024/04/03 04:41:05;;;;;;;6.03;2.88;;;;;;;9.63;100.00;99897.34;4961979;28;20063;-86
2024/04/03 04:43:34;;;;;;;13.25;3.47;;;;;;;9.63;100.00;99906.94;4948251;28;20043;-82
2024/04/03 04:46:04;;;;;;;7.63;3.58;;;;;;;9.64;100.00;99903.44;4953403;28;20055;-86
2024/04/03 04:48:39;;;;;;;9.13;3.50;;;;;;;9.63;100.00;99897.34;4929861;28;20101;-82
2024/04/03 04:51:05;;;;;;;13.70;5.72;;;;;;;9.65;100.00;99906.03;4933753;28;20042;-83
2024/04/03 04:53:32;;;;;;;9.23;3.75;;;;;;;9.64;100.00;99899.06;4949570;28;20657;-83
2024/04/03 04:56:05;;;;;;;11.90;3.17;;;;;;;9.66;100.00;99904.28;4946757;28;20062;-84
2024/04/03 04:58:32;;;;;;;;;;;;;;;9.64;100.00;99903.44;4949901;28;20062;-83
2024/04/03 05:01:07;;;;;;;7.20;2.85;;;;;;;9.67;100.00;99898.16;4940167;29;20013;-85
2024/04/03 05:03:35;;;;;;;10.88;4.15;;;;;;;9.67;100.00;99896.41;4922233;29;20555;-83
2024/04/03 05:06:04;;;;;;;9.95;3.00;;;;;;;9.70;100.00;99898.09;4922318;29;20043;-85
2024/04/03 05:08:34;;;;;;;8.55;3.95;;;;;;;9.69;100.00;99891.16;4943934;29;20047;-84
2024/04/03 05:11:03;;;;;;;8.10;3.83;;;;;;;9.73;100.00;99898.91;4931593;29;20048;-86
2024/04/03 05:13:32;;;;;;;8.50;4.22;;;;;;;9.76;100.00;99895.38;4932037;29;20052;-83
2024/04/03 05:16:05;;;;;;;11.88;4.68;;;;;;;9.78;100.00;99896.22;4919153;29;20063;-83
2024/04/03 05:18:37;;;;;;;13.98;3.72;;;;;;;9.75;100.00;99894.53;4935480;29;20048;-85
2024/04/03 05:21:12;;;;;;;6.07;3.75;;;;;;;9.76;100.00;99891.03;4905013;29;21229;-85
2024/04/03 05:23:39;;;;;;;11.50;3.58;;;;;;;9.81;100.00;99897.94;4889831;29;20059;-86
2024/04/03 05:26:08;;;;;;;13.55;3.38;;;;;;;9.82;100.00;99905.72;4914040;29;20427;-84
2024/04/03 05:28:36;;;;;;;8.20;4.50;;;;;;;9.86;100.00;99898.72;4924476;29;20098;-85
2024/04/03 05:31:14;;;;;;;10.73;4.32;;;;;;;9.82;100.00;99907.50;4907128;29;20051;-87
2024/04/03 05:33:54;;;;;;;9.80;5.18;;;;;;;9.81;100.00;99895.31;4907438;29;20173;-88
2024/04/03 05:36:20;;;;;;;15.05;6.78;;;;;;;9.74;100.00;99903.25;4917788;29;20058;-85
2024/04/03 05:38:49;;;;;;;12.50;6.10;;;;;;;9.70;100.00;99909.44;4932603;29;20028;-86
2024/04/03 05:41:14;;;;;;;15.00;6.03;;;;;;;9.64;100.00;99914.75;4947587;29;20054;-90
2024/04/03 05:43:44;;;;;;;12.65;5.63;;;;;;;9.58;100.00;99910.50;4937377;29;20040;-90
2024/04/03 05:46:10;;;;;;;17.63;8.07;;;;;;;9.58;100.00;99912.25;4949885;29;20098;-91
2024/04/03 05:48:37;;;;;;;15.45;6.82;;;;;;;9.58;100.00;99904.41;4946963;29;20051;-90
2024/04/03 05:51:22;;;;;;;12.85;6.18;;;;;;;9.63;100.00;99914.78;4938036;29;20039;-90
2024/04/03 05:53:49;;;;;;;10.73;6.57;;;;;;;9.70;100.00;99916.38;4936552;29;20427;-83
2024/04/03 05:56:15;;;;;;;11.90;6.60;;;;;;;9.67;100.00;99908.63;4920159;29;20083;-84
2024/04/03 05:58:41;;;;;;;10.65;6.63;;;;;;;9.70;100.00;99913.78;4937078;29;20115;-85
2024/04/03 06:01:09;;;;;;;12.40;6.80;;;;;;;9.67;100.00;99911.22;4931508;28;20153;-85
2024/04/03 06:03:37;;;;;;;15.25;7.13;;;;;;;9.68;100.00;99911.19;4949053;29;20035;-85
2024/04/03 06:06:03;;;;;;;16.90;7.28;;;;;;;9.74;100.00;99908.47;4940896;28;20494;-87
2024/04/03 06:11:25;;;;;;;10.27;7.57;;;;;;;9.98;100.00;99911.53;4950557;28;20045;-86
2024/04/03 06:13:52;;;;;;;12.90;7.00;;;;;;;10.01;100.00;99916.72;4940161;28;20515;-83
2024/04/03 06:16:18;;;;;;;12.00;7.28;;;;;;;10.09;100.00;99908.75;4941171;28;20057;-84
2024/04/03 06:18:44;;;;;;;15.90;7.50;;;;;;;10.13;100.00;99918.25;4932996;29;20048;-84
2024/04/03 06:21:13;;;;;;;12.25;8.50;;;;;;;10.03;100.00;99912.31;4936346;28;20053;-85
2024/04/03 06:23:40;;;;;;;16.20;7.80;;;;;;;10.06;100.00;99914.91;4946477;28;20059;-84
2024/04/03 06:26:07;;;;;;;10.02;6.82;;;;;;;10.13;100.00;99913.03;4951728;28;20038;-82
2024/04/03 06:28:34;;;;;;;8.27;6.90;;;;;;;10.23;100.00;99909.34;4946213;28;20055;-83
2024/04/03 06:31:00;;;;;;;10.45;6.88;;;;;;;10.34;100.00;99909.13;4934284;28;20122;-83
2024/04/03 06:33:28;;;;;;;9.95;6.72;;;;;;;10.36;100.00;99915.19;4926498;28;20043;-84
2024/04/03 06:35:55;;;;;;;10.90;6.80;;;;;;;10.40;100.00;99908.16;4943344;28;20228;-84
2024/04/03 06:38:21;;;;;;;10.68;7.25;;;;;;;10.30;100.00;99911.81;4948593;28;20047;-84
2024/04/03 06:40:48;;;;;;;11.75;6.60;;;;;;;10.27;100.00;99912.72;4936114;28;20058;-83
2024/04/03 06:43:16;;;;;;;7.65;6.80;;;;;;;10.12;100.00;99911.28;4934619;28;20046;-85
2024/04/03 06:45:43;;;;;;;13.23;7.20;;;;;;;10.14;100.00;99914.72;4932139;28;20075;-83
2024/04/03 06:48:09;;;;;;;11.30;7.35;;;;;;;10.16;100.00;99912.94;4935342;28;20146;-82
2024/04/03 06:50:35;;;;;;;18.00;8.13;;;;;;;10.16;100.00;99912.09;4938917;28;20716;-85
2024/04/03 06:53:01;;;;;;;12.18;7.65;;;;;;;10.12;100.00;99911.28;4957005;28;20434;-84
2024/04/03 06:55:28;;;;;;;15.13;7.57;;;;;;;10.15;100.00;99913.00;4951266;28;20109;-84
2024/04/03 06:57:54;;;;;;;12.65;7.55;;;;;;;10.11;100.00;99912.19;4955964;28;20038;-84
2024/04/03 07:00:20;;;;;;;13.93;7.88;;;;;;;10.21;100.00;99910.25;4947976;28;20085;-85
2024/04/03 07:02:48;;;;;;;11.55;7.85;;;;;;;10.33;100.00;99912.63;4933602;28;20133;-85
2024/04/03 07:05:14;;;;;;;10.60;6.68;;;;;;;10.42;100.00;99912.47;4938228;28;20047;-85
2024/04/03 07:07:40;;;;;;;10.13;7.18;;;;;;;10.32;100.00;99910.88;4939069;28;20077;-88
2024/04/03 07:10:09;;;;;;;17.40;7.72;;;;;;;10.38;100.00;99907.34;4946722;28;20023;-89
2024/04/03 07:12:35;;;;;;;11.65;6.15;;;;;;;10.33;100.00;99910.00;4939705;28;20043;-87
2024/04/03 07:15:02;;;;;;;8.75;6.07;;;;;;;10.44;100.00;99907.19;4960177;28;20379;-87
2024/04/03 07:17:30;;;;;;;8.80;5.85;;;;;;;10.58;100.00;99913.00;4933368;28;20208;-88
2024/04/03 07:19:57;;;;;;;7.68;5.65;;;;;;;10.73;100.00;99906.59;4951887;28;20055;-87
2024/04/03 07:22:26;;;;;;;10.73;6.00;;;;;;;10.97;100.00;99899.09;4926742;28;20043;-87
2024/04/03 07:24:53;;;;;;;9.45;5.80;;;;;;;11.16;100.00;99898.66;4941667;28;20059;-87
2024/04/03 07:27:28;;;;;;;9.70;5.90;;;;;;;11.33;100.00;99893.88;4944399;28;20126;-88
2024/04/03 07:29:56;;;;;;;6.18;5.57;;;;;;;11.43;100.00;99899.75;4951222;28;20074;-88
2024/04/03 07:32:24;;;;;;;7.93;5.47;;;;;;;11.37;100.00;99900.78;4948206;28;20051;-87
2024/04/03 07:34:50;;;;;;;7.60;5.35;;;;;;;11.43;100.00;99897.13;4965835;28;20093;-88
2024/04/03 07:37:20;;;;;;;6.22;4.50;;;;;;;11.50;100.00;99896.09;4940800;28;20586;-87
2024/04/03 07:39:48;;;;;;;9.93;5.38;;;;;;;11.41;100.00;99898.94;4966209;28;20043;-88
2024/04/03 07:42:15;;;;;;;4.75;4.35;;;;;;;11.38;100.00;99905.13;4954056;28;20050;-88
2024/04/03 07:44:42;;;;;;;5.45;3.90;;;;;;;11.38;100.00;99907.75;4956003;28;20141;-87
2024/04/03 07:47:13;;;;;;;4.78;3.80;;;;;;;11.45;100.00;99912.84;4942850;28;20078;-89
2024/04/03 07:49:39;;;;;;;4.95;3.92;;;;;;;11.40;100.00;99905.94;4954048;28;20057;-87
2024/04/03 07:52:11;;;;;;;4.97;3.35;;;;;;;11.36;100.00;99916.53;4945275;28;20410;-86
2024/04/03 07:54:42;;;;;;;3.58;3.30;;;;;;;11.38;100.00;99922.59;4934805;28;20043;-85
2024/04/03 07:59:55;;;;;;;4.22;3.15;;;;;;;11.45;100.00;99918.09;4949490;28;20054;-86
2024/04/03 08:02:24;;;;;;;6.68;3.13;;;;;;;11.41;100.00;99925.16;4969019;28;20047;-88
2024/04/03 08:04:59;;;;;;;4.35;2.75;;;;;;;11.49;100.00;99922.34;4953429;28;20038;-87
2024/04/03 08:07:28;;;;;;;5.03;2.55;;;;;;;11.50;100.00;99910.94;4968112;28;20035;-87
2024/04/03 08:09:55;;;;;;;2.90;2.65;;;;;;;11.58;100.00;99914.25;4965684;28;20085;-88
2024/04/03 08:12:27;;;;;;;3.35;2.78;;;;;;;11.79;100.00;99917.22;4966502;28;20068;-87
2024/04/03 08:14:54;;;;;;;4.25;2.25;;;;;;;11.58;100.00;99920.34;4971957;28;20066;-88
2024/04/03 08:17:20;;;;;;;6.85;2.15;;;;;;;11.63;100.00;99919.38;4944389;28;20465;-85
2024/04/03 08:19:54;;;;;;;2.50;2.30;;;;;;;11.58;100.00;99919.50;4937363;28;20142;-86
2024/04/03 08:22:20;;;;;;;2.15;2.05;;;;;;;11.51;100.00;99920.53;4934660;28;20051;-87
2024/04/03 08:24:48;;;;;;;2.60;2.00;;;;;;;11.62;100.00;99912.41;4955104;28;20055;-85
2024/04/03 08:27:15;;;;;;;2.75;2.53;;;;;;;11.41;100.00;99912.91;4942633;28;20063;-84
2024/04/03 08:29:43;;;;;;;2.70;2.47;;;;;;;11.42;100.00;99919.03;4944358;28;20134;-85
2024/04/03 08:32:10;;;;;;;3.75;2.80;;;;;;;11.44;100.00;99914.59;4931169;28;20119;-86
2024/04/03 08:34:37;;;;;;;3.88;2.78;;;;;;;11.44;100.00;99925.06;4936431;28;20047;-84
2024/04/03 08:37:06;;;;;;;2.60;2.50;;;;;;;11.49;100.00;99915.34;4936686;28;20051;-82
2024/04/03 08:39:34;;;;;;;3.00;2.80;;;;;;;11.59;100.00;99914.22;4939018;28;20138;-84
2024/04/03 08:42:01;;;;;;;3.55;2.85;;;;;;;11.62;100.00;99917.66;4943673;28;20587;-82
2024/04/03 08:44:36;;;;;;;2.78;2.58;;;;;;;11.65;100.00;99912.34;4956067;28;20050;-84
2024/04/03 08:47:02;;;;;;;3.00;2.75;;;;;;;11.72;100.00;99909.53;4957240;28;20051;-84
2024/04/03 08:49:36;;;;;;;2.90;2.70;;;;;;;11.85;100.00;99915.31;4936266;28;20046;-85
2024/04/03 08:52:03;;;;;;;;;;;;;;;12.15;100.00;99918.06;4937981;28;20130;-84
2024/04/03 08:54:31;;;;;;;3.30;3.00;;;;;;;12.30;100.00;99929.88;4966959;28;20277;-85
2024/04/03 08:57:01;;;;;;;3.78;3.58;;;;;;;12.33;100.00;99921.94;4936100;28;20051;-85
2024/04/03 08:59:31;;;;;;;4.78;3.28;;;;;;;12.42;100.00;99926.03;4931419;28;20052;-84
2024/04/03 09:01:57;;;;;;;4.22;2.80;;;;;;;12.51;100.00;99920.53;4939660;28;20449;-84
2024/04/03 09:04:23;;;;;;;3.67;2.67;;;;;;;12.56;100.00;99918.63;4949691;28;20066;-83
2024/04/03 09:06:49;;;;;;;3.22;2.88;;;;;;;12.77;100.00;99921.53;4949754;28;20701;-83
2024/04/03 09:09:23;;;;;;;6.25;4.03;;;;;;;12.73;100.00;99919.91;4935730;28;20053;-84
2024/04/03 09:11:54;;;;;;;3.00;2.80;;;;;;;12.83;100.00;99921.34;4954957;28;20039;-83
2024/04/03 09:14:25;;;;;;;1.90;1.80;;;;;;;12.55;100.00;99924.81;4951023;28;20035;-84
2024/04/03 09:17:01;;;;;;;2.15;1.92;;;;;;;12.28;100.00;99921.19;4934635;28;20054;-82
2024/04/03 09:19:35;;;;;;;3.38;1.92;;;;;;;12.13;100.00;99916.38;4941453;28;20145;-84
2024/04/03 09:22:02;;;;;;;1.60;1.50;;;;;;;12.24;100.00;99924.78;4969974;28;20838;-85
2024/04/03 09:24:36;;;;;;;2.17;1.98;;;;;;;12.30;100.00;99926.41;4940635;28;20456;-85
2024/04/03 09:27:09;;;;;;;2.13;1.92;;;;;;;12.27;100.00;99927.34;4941661;28;20580;-83
2024/04/03 09:29:35;;;;;;;1.10;1.10;;;;;;;12.40;100.00;99930.50;4937055;28;20709;-83
2024/04/03 09:32:06;;;;;;;3.10;1.17;;;;;;;12.34;100.00;99922.78;4940217;28;20050;-82
2024/04/03 09:34:33;;;;;;;1.55;1.20;;;;;;;12.25;100.00;99918.66;4934897;28;20485;-83
2024/04/03 09:37:04;;;;;;;2.17;0.82;;;;;;;12.03;100.00;99932.38;4949071;28;20137;-84
2024/04/03 09:39:31;;;;;;;1.33;1.02;;;;;;;12.07;100.00;99933.13;4935667;28;20082;-83
2024/04/03 09:42:05;;;;;;;1.95;1.08;;;;;;;11.93;100.00;99933.47;4932187;28;20063;-83
2024/04/03 09:44:32;;;;;;;1.27;1.10;;;;;;;11.87;100.00;99925.75;4926369;28;20055;-82
2024/04/03 09:47:05;;;;;;;1.77;0.68;;;;;;;11.80;100.00;99929.41;4943016;28;20458;-84
2024/04/03 09:49:42;;;;;;;1.08;0.70;;;;;;;11.80;100.00;99922.44;4953608;28;20516;-85
2024/04/03 09:52:10;;;;;;;1.85;0.68;;;;;;;11.73;100.00;99913.88;4931608;28;20494;-82
2024/04/03 09:54:37;;;;;;;3.33;1.05;;;;;;;11.89;100.00;99916.09;4938327;28;20347;-84
2024/04/03 09:57:04;;;;;;;1.73;1.38;;;;;;;11.97;100.00;99915.91;4953265;28;20051;-85
2024/04/03 09:59:31;;;;;;;0.90;0.60;;;;;;;11.96;100.00;99912.44;4934635;28;20777;-84
2024/04/03 10:01:57;;;;;;;1.90;0.70;;;;;;;11.83;100.00;99914.47;4936635;28;20051;-86
2024/04/03 10:04:39;;;;;;;0.85;0.77;;;;;;;11.92;100.00;99913.38;4948382;28;20283;-84
2024/04/03 10:07:22;;;;;;;0.55;0.50;;;;;;;12.05;100.00;99919.19;4968253;28;20098;-85
2024/04/03 10:09:52;;;;;;;0.80;0.50;;;;;;;12.07;100.00;99914.75;4937804;28;20538;-84
2024/04/03 10:12:21;;;;;;;2.17;0.90;;;;;;;12.10;100.00;99916.44;4938234;28;20110;-82
2024/04/03 10:14:58;;;;;;;2.65;0.63;;;;;;;12.17;100.00;99913.59;4937474;28;20046;-85
2024/04/03 10:17:24;;;;;;;1.67;0.50;;;;;;;11.87;100.00;99913.50;4946012;28;20450;-83
2024/04/03 10:19:59;;;;;;;0.68;0.40;;;;;;;11.92;100.00;99911.59;4949128;28;20050;-83
2024/04/03 10:22:29;;;;;;;2.88;0.95;;;;;;;12.05;100.00;99908.69;4933206;28;21085;-84
2024/04/03 10:24:56;;;;;;;2.40;0.55;;;;;;;12.14;100.00;99903.22;4940740;28;20455;-82
2024/04/03 10:27:24;;;;;;;0.60;0.52;;;;;;;12.47;100.00;99900.53;4931243;28;20051;-84
2024/04/03 10:30:01;;;;;;;0.63;0.40;;;;;;;12.78;100.00;99901.41;4935059;28;20054;-83
2024/04/03 10:32:27;;;;;;;0.85;0.50;;;;;;;12.81;100.00;99893.41;4952646;28;20046;-83
2024/04/03 10:34:56;;;;;;;0.55;0.43;;;;;;;12.70;100.00;99891.13;4950623;28;20050;-83
2024/04/03 10:37:24;;;;;;;0.95;0.40;;;;;;;12.81;100.00;99889.00;4951482;28;20067;-83
2024/04/03 10:39:54;;;;;;;1.10;0.52;;;;;;;13.11;100.00;99881.09;4948917;28;20059;-84
2024/04/03 10:42:21;;;;;;;2.47;0.95;;;;;;;13.14;100.00;99878.38;4944329;28;20146;-83
2024/04/03 10:44:48;;;;;;;2.72;0.60;;;;;;;12.90;100.00;99882.63;4933839;29;20039;-84
2024/04/03 10:47:17;;;;;;;3.10;0.63;;;;;;;12.94;100.00;99876.38;4934243;28;20110;-85
2024/04/03 10:49:43;;;;;;;1.38;0.60;;;;;;;13.20;100.00;99870.28;4959227;28;20134;-85
2024/04/03 10:52:10;;;;;;;1.23;0.40;;;;;;;13.07;100.00;99879.47;4944544;28;20035;-85
2024/04/03 10:54:37;;;;;;;0.73;0.50;;;;;;;13.04;100.00;99874.31;4933193;28;20083;-83
2024/04/03 10:57:02;;;;;;;0.50;0.50;;;;;;;12.82;100.00;99876.75;4935300;28;20042;-86
2024/04/03 10:59:30;;;;;;;0.75;0.38;;;;;;;12.74;100.00;99877.84;4936083;28;20538;-83
2024/04/03 11:01:55;;;;;;;0.82;0.82;;;;;;;12.74;100.00;99872.59;4938236;28;20055;-84
2024/04/03 11:04:30;;;;;;;1.02;0.65;;;;;;;12.70;100.00;99870.13;4949613;28;20062;-81
2024/04/03 11:06:58;;;;;;;0.93;0.40;;;;;;;12.88;100.00;99874.81;4949887;28;21029;-85
2024/04/03 11:09:27;;;;;;;0.60;0.60;;;;;;;12.83;100.00;99873.22;4947382;28;20054;-83
2024/04/03 11:11:53;;;;;;;1.85;0.50;;;;;;;12.83;100.00;99873.22;4949259;28;20043;-84
2024/04/03 11:14:35;;;;;;;3.35;0.52;;;;;;;12.81;100.00;99868.00;4933067;28;20039;-85
2024/04/03 11:21:34;;;;;;;2.60;0.70;;;;;;;12.80;100.00;99866.31;4836172;29;20086;-83
2024/04/03 11:24:06;;;;;;;2.80;0.68;;;;;;;12.84;100.00;99862.69;4857759;29;20064;-85
2024/04/03 11:26:32;;;;;;;3.22;0.60;;;;;;;12.92;100.00;99851.94;4874555;29;20100;-85
2024/04/03 11:28:58;;;;;;;1.52;0.50;;;;;;;13.03;100.00;99849.81;4899237;28;20047;-83
2024/04/03 11:31:25;;;;;;;0.65;0.50;;;;;;;13.10;100.00;99853.09;4933912;28;20058;-86
2024/04/03 11:33:51;;;;;;;2.20;0.70;;;;;;;12.84;100.00;99846.91;4936179;28;20549;-83
2024/04/03 11:36:19;;;;;;;0.77;0.75;;;;;;;12.99;100.00;99849.97;4953148;28;20463;-85
2024/04/03 11:38:46;;;;;;;2.20;0.70;;;;;;;13.01;100.00;99841.13;4953849;28;20083;-85
2024/04/03 11:41:13;;;;;;;2.22;0.68;;;;;;;12.89;100.00;99846.75;4932556;28;20054;-84
2024/04/03 11:43:38;;;;;;;1.67;0.35;;;;;;;12.91;100.00;99848.44;4957486;28;20031;-85
2024/04/03 11:46:05;;;;;;;2.20;0.90;;;;;;;12.78;100.00;99847.09;4970486;28;20069;-84